Stepps, United Kingdom
Current Conditions -  °F | °C
As of 1:50 AM on Sunday 26 Oct 2014 (Local Time) from EGPF Reporting Station
Light Rain Light Rain  
Wind Chill: 52°   Ceiling: 1700
Heat Index: 52°   Visibility: 6mi
Dew Point: 48°   Wind: 23mph
Humidity: 88%   Direction: 230°SW
Pressure: 29.71"   Gusts: 36mph
Location:  55.89°N, 4.15°W
Report Text: EGPF 260050Z AUTO 23020G31KT 9999 -RA BKN017 11/09 Q1006 RERA
Loading
Personal Weather Stations






























Interactive Weather Map New forecast layout! Learn more

10-Day Weather Forecast

Advertisements
Track Severe Weather on mobile